메인 페이지
METAR-TAF:

METAR-TAF

공항 :

Yurimaguas, 페루

위도: 05-54S, 경도: 076-05W, 고도: 179m

현재 날씨관측

예보는 1 시간 21분 전, 18:00시(UTC)에 발표되었습니다.
북북동5kt
온도 31°C
습도 71%
기압 1012 hPa
시정 10km 이상
고도 1500ft 상공 구름 보통
고도 8000ft 상공 구름 보통

METAR: SPMS 171800Z 02005KT 9999 SCT015 SCT080 31/25 Q1012 RMK BIRD HAZARD RWY 09/27 PP000

시각: 14:21 (19:21 UTC)

예보

예보는 2 시간 21분 전, 17:00시(UTC)에 발표되었습니다.
예보 대상 시간: 17일 18시부터 18일 18시까지 (UTC)
5kt
시정 10km 이상
고도 1500ft 상공 구름 조금
고도 8000ft 상공 구름 보통
일시적
17일 20시부터 17일 24시까지 (UTC)
시정: 4000m
고도 800ft 상공 구름 많음
고도 2000ft 상공 구름 조금, 적란운.
고도 8000ft 상공 구름 많음
일시적
18일 10시부터 18일 14시까지 (UTC)
시정: 4000m
고도 600ft 상공 구름 많음
고도 10000ft 상공 구름 많음
곳곳에 안개,

TAF: SPMS 171700Z 1718/1818 36005KT 9999 FEW015 SCT080 TX33/1720Z TN20/1811Z TEMPO 1720/1724 4000 RA BKN008 FEW020CB BKN080 TEMPO 1810/1814 4000 BCFG BKN006 BKN100

4,000개 이상의 공항 관측 자료 및 예보 (METAR 및 TAF 보고).

지도상에서 검색 가능한 기상관측소가 노란 점과 빨간 점으로 표시되어 있습니다.

기상관측소 명을 보려면 표시 위로 마우스를 이동하세요.

날씨 관측과 예보를 보려면 클릭하세요.

지도 변경 : 확대하려면 엑스 표시가 있는 녹색 버튼, 축소하려면 빼기 표시가 있는 녹색 버튼, 다음 페이지의 지도를 보려면 녹색 화살표를 클릭하세요.


METAR-TAF: